createdAt,value
2022-10-15T00:00:46.774Z,1001.93
2022-10-15T00:01:46.899Z,1001.92
2022-10-15T00:02:46.821Z,1001.90
2022-10-15T00:03:46.926Z,1001.93
2022-10-15T00:04:46.870Z,1001.91
2022-10-15T00:05:46.890Z,1001.88
2022-10-15T00:06:46.923Z,1001.90
2022-10-15T00:07:46.945Z,1001.84
2022-10-15T00:08:46.969Z,1001.82
2022-10-15T00:09:46.993Z,1001.81
2022-10-15T00:10:47.020Z,1001.78
2022-10-15T00:11:47.042Z,1001.79
2022-10-15T00:12:47.066Z,1001.75
2022-10-15T00:13:47.091Z,1001.77
2022-10-15T00:14:47.113Z,1001.76
2022-10-15T00:15:47.140Z,1001.77
2022-10-15T00:16:47.165Z,1001.74
2022-10-15T00:17:47.190Z,1001.74
2022-10-15T00:18:47.213Z,1001.70
2022-10-15T00:19:47.244Z,1001.70
2022-10-15T00:20:47.262Z,1001.72
2022-10-15T00:21:47.290Z,1001.73
2022-10-15T00:22:47.315Z,1001.74
2022-10-15T00:23:47.338Z,1001.71
2022-10-15T00:24:47.362Z,1001.73
2022-10-15T00:25:47.386Z,1001.72
2022-10-15T00:26:47.411Z,1001.74
2022-10-15T00:27:47.443Z,1001.78
2022-10-15T00:28:47.519Z,1001.74
2022-10-15T00:29:47.485Z,1001.75
2022-10-15T00:30:47.519Z,1001.78
2022-10-15T00:31:47.533Z,1001.75
2022-10-15T00:32:47.560Z,1001.77
2022-10-15T00:33:47.583Z,1001.75
2022-10-15T00:34:47.608Z,1001.76
2022-10-15T00:35:47.634Z,1001.74
2022-10-15T00:36:47.663Z,1001.75
2022-10-15T00:37:47.682Z,1001.74
2022-10-15T00:38:47.708Z,1001.73
2022-10-15T00:39:47.733Z,1001.72
2022-10-15T00:40:47.753Z,1001.74
2022-10-15T00:41:47.781Z,1001.76
2022-10-15T00:42:47.804Z,1001.75
2022-10-15T00:43:47.831Z,1001.75
2022-10-15T00:44:47.854Z,1001.71
2022-10-15T00:45:47.879Z,1001.68
2022-10-15T00:46:47.903Z,1001.70
2022-10-15T00:47:47.930Z,1001.67
2022-10-15T00:48:47.954Z,1001.69
2022-10-15T00:49:47.980Z,1001.72
2022-10-15T00:50:48.000Z,1001.73
2022-10-15T00:51:48.029Z,1001.74
2022-10-15T00:52:48.052Z,1001.79
2022-10-15T00:53:48.079Z,1001.75
2022-10-15T00:54:48.102Z,1001.76
2022-10-15T00:55:48.130Z,1001.75
2022-10-15T00:56:48.150Z,1001.77
2022-10-15T00:57:48.176Z,1001.76
2022-10-15T00:58:48.200Z,1001.72
2022-10-15T00:59:48.226Z,1001.73
2022-10-15T01:00:48.306Z,1001.75
2022-10-15T01:01:48.281Z,1001.72
2022-10-15T01:02:48.301Z,1001.74
2022-10-15T01:03:48.327Z,1001.74
2022-10-15T01:04:48.349Z,1001.75
2022-10-15T01:05:48.377Z,1001.72
2022-10-15T01:06:48.428Z,1001.72
2022-10-15T01:07:48.424Z,1001.66
2022-10-15T01:08:48.447Z,1001.71
2022-10-15T01:09:48.473Z,1001.70
2022-10-15T01:10:48.501Z,1001.70
2022-10-15T01:11:48.521Z,1001.68
2022-10-15T01:12:48.549Z,1001.70
2022-10-15T01:13:48.571Z,1001.66
2022-10-15T01:14:48.598Z,1001.67
2022-10-15T01:15:48.621Z,1001.67
2022-10-15T01:16:48.649Z,1001.66
2022-10-15T01:17:48.672Z,1001.62
2022-10-15T01:18:48.696Z,1001.60
2022-10-15T01:19:48.722Z,1001.63
2022-10-15T01:20:48.746Z,1001.61
2022-10-15T01:21:48.772Z,1001.58
2022-10-15T01:22:48.799Z,1001.53
2022-10-15T01:23:48.823Z,1001.49
2022-10-15T01:24:48.845Z,1001.51
2022-10-15T01:25:48.869Z,1001.47
2022-10-15T01:26:48.895Z,1001.48
2022-10-15T01:27:48.919Z,1001.44
2022-10-15T01:28:49.005Z,1001.47
2022-10-15T01:29:48.970Z,1001.48
2022-10-15T01:30:48.989Z,1001.48
2022-10-15T01:31:49.017Z,1001.51
2022-10-15T01:32:49.043Z,1001.51
2022-10-15T01:33:49.069Z,1001.52
2022-10-15T01:34:49.094Z,1001.52
2022-10-15T01:35:49.119Z,1001.55
2022-10-15T01:36:49.143Z,1001.58
2022-10-15T01:37:49.169Z,1001.59
2022-10-15T01:38:49.197Z,1001.60
2022-10-15T01:39:49.224Z,1001.59
2022-10-15T01:40:49.244Z,1001.59
2022-10-15T01:41:49.266Z,1001.57
2022-10-15T01:42:49.293Z,1001.62
2022-10-15T01:43:49.318Z,1001.60
2022-10-15T01:44:49.340Z,1001.61
2022-10-15T01:45:49.367Z,1001.58
2022-10-15T01:46:49.390Z,1001.61
2022-10-15T01:47:49.421Z,1001.61
2022-10-15T01:48:49.446Z,1001.61
2022-10-15T01:49:49.466Z,1001.63
2022-10-15T01:50:49.490Z,1001.63
2022-10-15T01:51:49.517Z,1001.61
2022-10-15T01:52:49.542Z,1001.62
2022-10-15T01:53:49.565Z,1001.61
2022-10-15T01:54:49.588Z,1001.57
2022-10-15T01:55:49.618Z,1001.58
2022-10-15T01:56:49.675Z,1001.57
2022-10-15T01:57:49.667Z,1001.56
2022-10-15T01:58:49.690Z,1001.55
2022-10-15T01:59:49.717Z,1001.56
2022-10-15T02:00:49.809Z,1001.57
2022-10-15T02:01:49.766Z,1001.58
2022-10-15T02:02:49.792Z,1001.60
2022-10-15T02:03:49.817Z,1001.54
2022-10-15T02:04:49.839Z,1001.57
2022-10-15T02:05:49.866Z,1001.55
2022-10-15T02:06:49.889Z,1001.53
2022-10-15T02:07:49.914Z,1001.54
2022-10-15T02:08:49.942Z,1001.53
2022-10-15T02:09:49.971Z,1001.54
2022-10-15T02:10:49.992Z,1001.52
2022-10-15T02:11:50.017Z,1001.52
2022-10-15T02:12:50.038Z,1001.53
2022-10-15T02:13:50.064Z,1001.48
2022-10-15T02:14:50.089Z,1001.52
2022-10-15T02:15:50.117Z,1001.52
2022-10-15T02:16:50.139Z,1001.51
2022-10-15T02:17:50.180Z,1001.51
2022-10-15T02:18:50.188Z,1001.47
2022-10-15T02:19:50.256Z,1001.49
2022-10-15T02:20:50.240Z,1001.45
2022-10-15T02:21:50.265Z,1001.47
2022-10-15T02:22:50.287Z,1001.48
2022-10-15T02:23:50.317Z,1001.47
2022-10-15T02:24:53.094Z,1001.48
2022-10-15T02:25:50.370Z,1001.46
2022-10-15T02:26:50.389Z,1001.45
2022-10-15T02:27:50.415Z,1001.45
2022-10-15T02:28:50.479Z,1001.38
2022-10-15T02:29:50.467Z,1001.37
2022-10-15T02:30:50.488Z,1001.38
2022-10-15T02:31:50.524Z,1001.36
2022-10-15T02:32:50.540Z,1001.37
2022-10-15T02:33:50.566Z,1001.36
2022-10-15T02:34:50.589Z,1001.34
2022-10-15T02:35:50.615Z,1001.37
2022-10-15T02:36:50.640Z,1001.40
2022-10-15T02:37:50.664Z,1001.43
2022-10-15T02:38:50.688Z,1001.44
2022-10-15T02:39:50.716Z,1001.43
2022-10-15T02:40:50.736Z,1001.43
2022-10-15T02:41:50.761Z,1001.45
2022-10-15T02:42:50.797Z,1001.42
2022-10-15T02:43:50.812Z,1001.39
2022-10-15T02:44:50.836Z,1001.42
2022-10-15T02:45:50.861Z,1001.41
2022-10-15T02:46:50.890Z,1001.40
2022-10-15T02:47:50.911Z,1001.41
2022-10-15T02:48:50.933Z,1001.40
2022-10-15T02:49:50.961Z,1001.39
2022-10-15T02:50:50.985Z,1001.38
2022-10-15T02:51:51.010Z,1001.39
2022-10-15T02:52:51.033Z,1001.38
2022-10-15T02:53:51.059Z,1001.37
2022-10-15T02:54:51.085Z,1001.35
2022-10-15T02:55:51.113Z,1001.36
2022-10-15T02:56:51.131Z,1001.36
2022-10-15T02:57:51.159Z,1001.42
2022-10-15T02:58:51.190Z,1001.44
2022-10-15T02:59:51.204Z,1001.41
2022-10-15T03:00:51.262Z,1001.40
2022-10-15T03:01:51.259Z,1001.44
2022-10-15T03:02:51.282Z,1001.40
2022-10-15T03:03:51.304Z,1001.39
2022-10-15T03:04:51.330Z,1001.39
2022-10-15T03:05:51.355Z,1001.44
2022-10-15T03:06:51.379Z,1001.47
2022-10-15T03:07:51.403Z,1001.46
2022-10-15T03:08:51.427Z,1001.48
2022-10-15T03:09:51.454Z,1001.50
2022-10-15T03:10:51.481Z,1001.47
2022-10-15T03:11:51.502Z,1001.45
2022-10-15T03:12:51.526Z,1001.48
2022-10-15T03:13:51.555Z,1001.43
2022-10-15T03:14:51.577Z,1001.42
2022-10-15T03:15:51.603Z,1001.43
2022-10-15T03:16:51.627Z,1001.42
2022-10-15T03:17:51.646Z,1001.38
2022-10-15T03:18:51.674Z,1001.39
2022-10-15T03:19:51.699Z,1001.36
2022-10-15T03:20:51.721Z,1001.41
2022-10-15T03:21:51.744Z,1001.38
2022-10-15T03:22:51.772Z,1001.41
2022-10-15T03:23:51.814Z,1001.36
2022-10-15T03:24:51.818Z,1001.38
2022-10-15T03:25:51.847Z,1001.40
2022-10-15T03:26:51.868Z,1001.36
2022-10-15T03:27:51.897Z,1001.34
2022-10-15T03:28:51.972Z,1001.25
2022-10-15T03:29:52.037Z,1001.28
2022-10-15T03:30:51.966Z,1001.27
2022-10-15T03:31:51.991Z,1001.26
2022-10-15T03:32:52.023Z,1001.27
2022-10-15T03:33:52.040Z,1001.29
2022-10-15T03:34:52.065Z,1001.27
2022-10-15T03:35:52.089Z,1001.30
2022-10-15T03:36:52.119Z,1001.29
2022-10-15T03:37:52.138Z,1001.33
2022-10-15T03:38:52.161Z,1001.27
2022-10-15T03:39:52.187Z,1001.29
2022-10-15T03:40:52.208Z,1001.26
2022-10-15T03:41:52.237Z,1001.28
2022-10-15T03:42:52.261Z,1001.28
2022-10-15T03:43:52.285Z,1001.27
2022-10-15T03:44:52.307Z,1001.31
2022-10-15T03:45:52.336Z,1001.28
2022-10-15T03:46:52.353Z,1001.29
2022-10-15T03:47:52.380Z,1001.29
2022-10-15T03:48:52.402Z,1001.28
2022-10-15T03:49:52.429Z,1001.28
2022-10-15T03:50:52.454Z,1001.27
2022-10-15T03:51:52.479Z,1001.31
2022-10-15T03:52:52.508Z,1001.27
2022-10-15T03:53:52.526Z,1001.26
2022-10-15T03:54:52.553Z,1001.28
2022-10-15T03:55:52.572Z,1001.27
2022-10-15T03:56:52.603Z,1001.28
2022-10-15T03:57:52.622Z,1001.24
2022-10-15T03:58:52.647Z,1001.27
2022-10-15T03:59:52.671Z,1001.27
2022-10-15T04:00:52.757Z,1001.28
2022-10-15T04:01:52.720Z,1001.31
2022-10-15T04:02:52.747Z,1001.30
2022-10-15T04:03:52.771Z,1001.29
2022-10-15T04:04:52.793Z,1001.27
2022-10-15T04:05:54.163Z,1001.25
2022-10-15T04:06:52.841Z,1001.26
2022-10-15T04:07:52.869Z,1001.23
2022-10-15T04:09:52.915Z,1001.24
2022-10-15T04:10:52.944Z,1001.24
2022-10-15T04:11:52.968Z,1001.23
2022-10-15T04:12:52.990Z,1001.25
2022-10-15T04:13:53.014Z,1001.26
2022-10-15T04:15:00.214Z,1001.25
2022-10-15T04:16:57.525Z,1001.24
2022-10-15T04:17:57.085Z,1001.26
2022-10-15T04:20:01.208Z,1001.17
2022-10-15T04:21:01.114Z,1001.21
2022-10-15T04:22:54.586Z,1001.25
2022-10-15T04:23:54.077Z,1001.30
2022-10-15T04:25:58.601Z,1001.35
2022-10-15T04:26:58.614Z,1001.35
2022-10-15T04:27:58.640Z,1001.36
2022-10-15T04:28:58.732Z,1001.39
2022-10-15T04:29:58.687Z,1001.37
2022-10-15T04:30:58.711Z,1001.33
2022-10-15T04:31:58.739Z,1001.29
2022-10-15T04:32:58.761Z,1001.26
2022-10-15T04:33:58.786Z,1001.27
2022-10-15T04:34:58.811Z,1001.26
2022-10-15T04:35:58.835Z,1001.23
2022-10-15T04:36:58.858Z,1001.25
2022-10-15T04:37:58.883Z,1001.24
2022-10-15T04:38:58.910Z,1001.28
2022-10-15T04:39:58.935Z,1001.25
2022-10-15T04:40:58.961Z,1001.29
2022-10-15T04:41:58.981Z,1001.29
2022-10-15T04:42:59.006Z,1001.35
2022-10-15T04:43:59.035Z,1001.35
2022-10-15T04:44:59.057Z,1001.34
2022-10-15T04:45:59.083Z,1001.31
2022-10-15T04:46:59.105Z,1001.30
2022-10-15T04:47:59.130Z,1001.26
2022-10-15T04:48:59.163Z,1001.27
2022-10-15T04:49:59.184Z,1001.25
2022-10-15T04:50:59.205Z,1001.22
2022-10-15T04:51:59.227Z,1001.26
2022-10-15T04:52:59.253Z,1001.25
2022-10-15T04:53:59.278Z,1001.28
2022-10-15T04:54:59.303Z,1001.21
2022-10-15T04:55:59.324Z,1001.31
2022-10-15T04:56:59.349Z,1001.31
2022-10-15T04:57:59.380Z,1001.31
2022-10-15T04:58:59.401Z,1001.34
2022-10-15T04:59:59.430Z,1001.26
2022-10-15T05:00:59.451Z,1001.26
2022-10-15T05:01:59.543Z,1001.29
2022-10-15T05:02:59.498Z,1001.31
2022-10-15T05:03:59.526Z,1001.33
2022-10-15T05:04:59.548Z,1001.33
2022-10-15T05:05:59.581Z,1001.28
2022-10-15T05:06:59.595Z,1001.29
2022-10-15T05:07:59.624Z,1001.30
2022-10-15T05:08:59.654Z,1001.33
2022-10-15T05:09:59.679Z,1001.30
2022-10-15T05:10:59.696Z,1001.35
2022-10-15T05:11:59.720Z,1001.32
2022-10-15T05:12:59.745Z,1001.32
2022-10-15T05:13:59.773Z,1001.31
2022-10-15T05:14:59.886Z,1001.32
2022-10-15T05:15:59.818Z,1001.27
2022-10-15T05:16:59.850Z,1001.29
2022-10-15T05:17:59.868Z,1001.28
2022-10-15T05:18:59.895Z,1001.28
2022-10-15T05:19:59.920Z,1001.29
2022-10-15T05:20:59.942Z,1001.30
2022-10-15T05:21:59.976Z,1001.35
2022-10-15T05:22:59.989Z,1001.37
2022-10-15T05:24:00.045Z,1001.43
2022-10-15T05:25:00.043Z,1001.39
2022-10-15T05:26:00.088Z,1001.44
2022-10-15T05:27:02.808Z,1001.44
2022-10-15T05:28:00.116Z,1001.40
2022-10-15T05:29:00.196Z,1001.42
2022-10-15T05:30:00.171Z,1001.41
2022-10-15T05:31:00.186Z,1001.42
2022-10-15T05:32:00.214Z,1001.43
2022-10-15T05:33:00.238Z,1001.38
2022-10-15T05:34:00.268Z,1001.39
2022-10-15T05:35:00.289Z,1001.40
2022-10-15T05:36:00.318Z,1001.40
2022-10-15T05:37:00.341Z,1001.43
2022-10-15T05:38:00.362Z,1001.44
2022-10-15T05:39:00.402Z,1001.45
2022-10-15T05:40:00.412Z,1001.42
2022-10-15T05:41:00.438Z,1001.41
2022-10-15T05:42:00.467Z,1001.40
2022-10-15T05:43:00.489Z,1001.40
2022-10-15T05:44:00.513Z,1001.40
2022-10-15T05:45:00.539Z,1001.34
2022-10-15T05:46:00.564Z,1001.40
2022-10-15T05:47:00.583Z,1001.42
2022-10-15T05:48:00.607Z,1001.43
2022-10-15T05:49:00.630Z,1001.41
2022-10-15T05:50:00.659Z,1001.44
2022-10-15T05:51:00.727Z,1001.45
2022-10-15T05:52:00.711Z,1001.44
2022-10-15T05:53:00.737Z,1001.48
2022-10-15T05:54:00.761Z,1001.48
2022-10-15T05:55:00.787Z,1001.49
2022-10-15T05:56:00.805Z,1001.52
2022-10-15T05:57:00.831Z,1001.51
2022-10-15T05:58:00.858Z,1001.50
2022-10-15T05:59:00.881Z,1001.46
2022-10-15T06:00:00.907Z,1001.50
2022-10-15T06:01:00.940Z,1001.46
2022-10-15T06:02:01.001Z,1001.49
2022-10-15T06:03:00.992Z,1001.52
2022-10-15T06:04:01.036Z,1001.53
2022-10-15T06:05:01.050Z,1001.53
2022-10-15T06:06:01.057Z,1001.53
2022-10-15T06:07:01.081Z,1001.51
2022-10-15T06:08:01.105Z,1001.54
2022-10-15T06:09:01.134Z,1001.53
2022-10-15T06:10:01.155Z,1001.53
2022-10-15T06:11:03.886Z,1001.52
2022-10-15T06:12:01.203Z,1001.56
2022-10-15T06:13:01.231Z,1001.56
2022-10-15T06:14:01.262Z,1001.56
2022-10-15T06:15:01.284Z,1001.54
2022-10-15T06:16:01.303Z,1001.58
2022-10-15T06:17:01.326Z,1001.55
2022-10-15T06:18:01.355Z,1001.57
2022-10-15T06:19:01.378Z,1001.58
2022-10-15T06:20:01.401Z,1001.54
2022-10-15T06:21:01.426Z,1001.54
2022-10-15T06:22:01.453Z,1001.57
2022-10-15T06:23:01.482Z,1001.51
2022-10-15T06:24:03.100Z,1001.53
2022-10-15T06:25:01.539Z,1001.58
2022-10-15T06:26:01.554Z,1001.64
2022-10-15T06:27:01.577Z,1001.65
2022-10-15T06:28:01.606Z,1001.65
2022-10-15T06:29:01.700Z,1001.63
2022-10-15T06:30:01.652Z,1001.58
2022-10-15T06:31:01.679Z,1001.57
2022-10-15T06:32:01.703Z,1001.58
2022-10-15T06:33:01.794Z,1001.60
2022-10-15T06:34:01.772Z,1001.59
2022-10-15T06:35:01.778Z,1001.61
2022-10-15T06:36:01.799Z,1001.64
2022-10-15T06:37:01.827Z,1001.64
2022-10-15T06:38:03.175Z,1001.66
2022-10-15T06:39:01.872Z,1001.67
2022-10-15T06:40:01.898Z,1001.65
2022-10-15T06:41:01.927Z,1001.68
2022-10-15T06:42:01.948Z,1001.68
2022-10-15T06:43:02.004Z,1001.67
2022-10-15T06:44:02.005Z,1001.69
2022-10-15T06:45:02.026Z,1001.67
2022-10-15T06:46:02.071Z,1001.67
2022-10-15T06:47:02.076Z,1001.69
2022-10-15T06:48:02.125Z,1001.70
2022-10-15T06:49:02.150Z,1001.74
2022-10-15T06:50:02.159Z,1001.79
2022-10-15T06:51:02.172Z,1001.80
2022-10-15T06:52:03.734Z,1001.83
2022-10-15T06:53:02.246Z,1001.82
2022-10-15T06:54:02.247Z,1001.85
2022-10-15T06:55:02.294Z,1001.84
2022-10-15T06:56:02.298Z,1001.86
2022-10-15T06:57:02.330Z,1001.86
2022-10-15T06:58:02.356Z,1001.81
2022-10-15T06:59:02.374Z,1001.82
2022-10-15T07:00:02.403Z,1001.77
2022-10-15T07:01:02.434Z,1001.79
2022-10-15T07:02:02.452Z,1001.78
2022-10-15T07:03:02.506Z,1001.81
2022-10-15T07:04:02.502Z,1001.76
2022-10-15T07:05:02.526Z,1001.76
2022-10-15T07:06:02.550Z,1001.78
2022-10-15T07:07:02.579Z,1001.78
2022-10-15T07:08:02.602Z,1001.75
2022-10-15T07:09:02.626Z,1001.77
2022-10-15T07:10:02.651Z,1001.76
2022-10-15T07:11:02.677Z,1001.79
2022-10-15T07:12:02.708Z,1001.74
2022-10-15T07:13:02.728Z,1001.78
2022-10-15T07:14:02.755Z,1001.79
2022-10-15T07:15:02.784Z,1001.85
2022-10-15T07:16:02.807Z,1001.88
2022-10-15T07:17:02.833Z,1001.88
2022-10-15T07:18:02.854Z,1001.91
2022-10-15T07:19:02.879Z,1001.90
2022-10-15T07:20:02.904Z,1001.94
2022-10-15T07:21:02.944Z,1001.96
2022-10-15T07:22:02.966Z,1001.97
2022-10-15T07:23:02.981Z,1001.98
2022-10-15T07:24:03.004Z,1002.00
2022-10-15T07:25:03.034Z,1002.01
2022-10-15T07:26:03.061Z,1002.04
2022-10-15T07:27:08.253Z,1002.05
2022-10-15T07:28:03.109Z,1002.03
2022-10-15T07:29:03.294Z,1002.07
2022-10-15T07:30:03.166Z,1002.07
2022-10-15T07:31:03.223Z,1002.09
2022-10-15T07:32:03.214Z,1002.08
2022-10-15T07:33:03.243Z,1002.13
2022-10-15T07:34:03.264Z,1002.06
2022-10-15T07:35:03.286Z,1002.10
2022-10-15T07:36:03.307Z,1002.11
2022-10-15T07:37:03.340Z,1002.08
2022-10-15T07:38:03.362Z,1002.04
2022-10-15T07:39:03.389Z,1002.09
2022-10-15T07:40:03.413Z,1002.11
2022-10-15T07:41:03.448Z,1002.11
2022-10-15T07:42:03.507Z,1002.09
2022-10-15T07:43:03.489Z,1002.08
2022-10-15T07:44:03.512Z,1002.12
2022-10-15T07:45:03.543Z,1002.07
2022-10-15T07:46:03.567Z,1002.11
2022-10-15T07:47:03.589Z,1002.11
2022-10-15T07:48:03.614Z,1002.10
2022-10-15T07:49:03.644Z,1002.07
2022-10-15T07:50:03.671Z,1002.08
2022-10-15T07:51:03.747Z,1002.09
2022-10-15T07:52:03.722Z,1002.06
2022-10-15T07:53:03.744Z,1002.04
2022-10-15T07:54:03.775Z,1002.05
2022-10-15T07:55:03.798Z,1002.00
2022-10-15T07:56:03.822Z,1002.01
2022-10-15T07:57:03.850Z,1001.99
2022-10-15T07:58:03.871Z,1002.00
2022-10-15T07:59:03.901Z,1002.01
2022-10-15T08:00:03.925Z,1002.02
2022-10-15T08:01:03.950Z,1002.01
2022-10-15T08:02:03.978Z,1002.01
2022-10-15T08:03:04.007Z,1001.99
2022-10-15T08:04:04.025Z,1002.02
2022-10-15T08:05:04.057Z,1002.01
2022-10-15T08:06:04.083Z,1002.00
2022-10-15T08:07:06.800Z,1002.00
2022-10-15T08:08:04.141Z,1001.96
2022-10-15T08:09:04.161Z,1001.99
2022-10-15T08:10:04.184Z,1002.01
2022-10-15T08:11:04.225Z,1001.99
2022-10-15T08:12:04.238Z,1001.97
2022-10-15T08:13:04.275Z,1001.96
2022-10-15T08:14:04.290Z,1001.96
2022-10-15T08:15:04.325Z,1001.94
2022-10-15T08:16:04.353Z,1001.91
2022-10-15T08:17:04.374Z,1001.89
2022-10-15T08:18:04.490Z,1001.93
2022-10-15T08:19:04.432Z,1001.93
2022-10-15T08:20:04.452Z,1001.91
2022-10-15T08:21:04.479Z,1001.90
2022-10-15T08:22:04.517Z,1001.94
2022-10-15T08:23:04.535Z,1001.95
2022-10-15T08:24:04.561Z,1001.93
2022-10-15T08:25:04.683Z,1001.90
2022-10-15T08:26:04.615Z,1001.88
2022-10-15T08:27:04.638Z,1001.91
2022-10-15T08:28:04.712Z,1001.85
2022-10-15T08:29:04.747Z,1001.89
2022-10-15T08:30:04.722Z,1001.89
2022-10-15T08:31:05.935Z,1001.83
2022-10-15T08:32:04.776Z,1001.82
2022-10-15T08:33:04.828Z,1001.78
2022-10-15T08:34:04.826Z,1001.78
2022-10-15T08:35:04.855Z,1001.78
2022-10-15T08:36:04.891Z,1001.83
2022-10-15T08:37:05.015Z,1001.84
2022-10-15T08:38:04.947Z,1001.85
2022-10-15T08:39:04.958Z,1001.93
2022-10-15T08:40:04.996Z,1001.85
2022-10-15T08:41:05.019Z,1001.89
2022-10-15T08:42:05.056Z,1001.87
2022-10-15T08:43:05.074Z,1001.85
2022-10-15T08:44:05.095Z,1001.87
2022-10-15T08:45:05.124Z,1001.90
2022-10-15T08:46:05.211Z,1001.85
2022-10-15T08:47:05.176Z,1001.89
2022-10-15T08:48:05.201Z,1001.85
2022-10-15T08:49:05.231Z,1001.86
2022-10-15T08:50:05.259Z,1001.83
2022-10-15T08:51:05.282Z,1001.86
2022-10-15T08:52:05.308Z,1001.87
2022-10-15T08:53:05.342Z,1001.86
2022-10-15T08:54:05.367Z,1001.87
2022-10-15T08:55:05.394Z,1001.87
2022-10-15T08:56:05.425Z,1001.84
2022-10-15T08:57:05.448Z,1001.86
2022-10-15T08:58:05.473Z,1001.87
2022-10-15T08:59:05.505Z,1001.86
2022-10-15T09:00:05.577Z,1001.84
2022-10-15T09:01:05.558Z,1001.86
2022-10-15T09:02:05.596Z,1001.87
2022-10-15T09:03:05.642Z,1001.85
2022-10-15T09:04:05.640Z,1001.85
2022-10-15T09:05:05.664Z,1001.85
2022-10-15T09:06:05.689Z,1001.85
2022-10-15T09:07:05.725Z,1001.84
2022-10-15T09:08:05.749Z,1001.83
2022-10-15T09:09:05.778Z,1001.83
2022-10-15T09:10:05.804Z,1001.82
2022-10-15T09:11:05.844Z,1001.83
2022-10-15T09:12:05.859Z,1001.81
2022-10-15T09:13:05.887Z,1001.79
2022-10-15T09:14:05.934Z,1001.76
2022-10-15T09:15:05.942Z,1001.74
2022-10-15T09:16:05.967Z,1001.75
2022-10-15T09:17:05.996Z,1001.76
2022-10-15T09:18:06.026Z,1001.76
2022-10-15T09:19:06.052Z,1001.75
2022-10-15T09:20:06.077Z,1001.77
2022-10-15T09:21:06.131Z,1001.77
2022-10-15T09:22:06.132Z,1001.73
2022-10-15T09:23:06.161Z,1001.77
2022-10-15T09:24:06.192Z,1001.70
2022-10-15T09:25:06.246Z,1001.67
2022-10-15T09:26:06.255Z,1001.63
2022-10-15T09:27:06.269Z,1001.69
2022-10-15T09:28:06.301Z,1001.67
2022-10-15T09:29:06.397Z,1001.71
2022-10-15T09:30:06.379Z,1001.73
2022-10-15T09:31:06.383Z,1001.76
2022-10-15T09:32:06.415Z,1001.76
2022-10-15T09:33:06.443Z,1001.74
2022-10-15T09:34:06.468Z,1001.78
2022-10-15T09:35:06.519Z,1001.80
2022-10-15T09:36:06.597Z,1001.80
2022-10-15T09:37:06.552Z,1001.78
2022-10-15T09:38:06.581Z,1001.83
2022-10-15T09:39:06.609Z,1001.85
2022-10-15T09:40:06.637Z,1001.84
2022-10-15T09:41:06.771Z,1001.86
2022-10-15T09:42:06.692Z,1001.83
2022-10-15T09:43:06.721Z,1001.85
2022-10-15T09:44:07.379Z,1001.84
2022-10-15T09:45:06.773Z,1001.88
2022-10-15T09:46:06.810Z,1001.86
2022-10-15T09:47:06.836Z,1001.83
2022-10-15T09:48:06.859Z,1001.84
2022-10-15T09:49:06.888Z,1001.90
2022-10-15T09:50:06.990Z,1001.80
2022-10-15T09:51:06.945Z,1001.79
2022-10-15T09:52:06.973Z,1001.78
2022-10-15T09:53:07.002Z,1001.81
2022-10-15T09:54:07.030Z,1001.80
2022-10-15T09:55:07.052Z,1001.83
2022-10-15T09:56:07.085Z,1001.80
2022-10-15T09:57:07.125Z,1001.84
2022-10-15T09:58:07.141Z,1001.81
2022-10-15T09:59:09.596Z,1001.80
2022-10-15T10:00:07.194Z,1001.80
2022-10-15T10:01:07.223Z,1001.83
2022-10-15T10:02:07.299Z,1001.83
2022-10-15T10:03:07.297Z,1001.82
2022-10-15T10:04:07.309Z,1001.81
2022-10-15T10:05:08.696Z,1001.81
2022-10-15T10:06:07.366Z,1001.81
2022-10-15T10:07:07.439Z,1001.81
2022-10-15T10:08:07.425Z,1001.77
2022-10-15T10:09:07.443Z,1001.74
2022-10-15T10:10:07.473Z,1001.71
2022-10-15T10:11:07.528Z,1001.73
2022-10-15T10:12:07.531Z,1001.70
2022-10-15T10:13:07.558Z,1001.68
2022-10-15T10:14:07.580Z,1001.73
2022-10-15T10:15:07.609Z,1001.70
2022-10-15T10:16:07.638Z,1001.69
2022-10-15T10:17:07.667Z,1001.68
2022-10-15T10:18:07.694Z,1001.73
2022-10-15T10:19:07.859Z,1001.72
2022-10-15T10:20:14.921Z,1001.71
2022-10-15T10:22:12.249Z,1001.75
2022-10-15T10:23:11.810Z,1001.74
2022-10-15T10:25:15.822Z,1001.76
2022-10-15T10:26:15.838Z,1001.73
2022-10-15T10:28:20.409Z,1001.69
2022-10-15T10:29:33.068Z,1001.66
2022-10-15T10:31:23.897Z,1001.62
2022-10-15T10:32:23.915Z,1001.59
2022-10-15T10:34:28.410Z,1001.58
2022-10-15T10:35:27.960Z,1001.52
2022-10-15T10:37:31.991Z,1001.46
2022-10-15T10:38:32.012Z,1001.42
2022-10-15T10:40:36.516Z,1001.40
2022-10-15T10:41:36.050Z,1001.41
2022-10-15T10:43:40.080Z,1001.35
2022-10-15T10:44:40.087Z,1001.34
2022-10-15T10:46:33.576Z,1001.33
2022-10-15T10:47:33.247Z,1001.32
2022-10-15T10:49:37.774Z,1001.33
2022-10-15T10:50:37.801Z,1001.33
2022-10-15T10:51:37.814Z,1001.32
2022-10-15T10:52:37.847Z,1001.31
2022-10-15T10:53:37.871Z,1001.30
2022-10-15T10:54:37.977Z,1001.28
2022-10-15T10:55:37.923Z,1001.27
2022-10-15T10:56:37.953Z,1001.20
2022-10-15T10:57:37.982Z,1001.19
2022-10-15T10:58:38.008Z,1001.16
2022-10-15T10:59:38.049Z,1001.18
2022-10-15T11:00:38.089Z,1001.17
2022-10-15T11:01:38.095Z,1001.18
2022-10-15T11:02:38.121Z,1001.14
2022-10-15T11:03:38.147Z,1001.15
2022-10-15T11:04:38.203Z,1001.13
2022-10-15T11:05:38.203Z,1001.09
2022-10-15T11:06:38.231Z,1001.07
2022-10-15T11:07:38.261Z,1001.08
2022-10-15T11:08:38.286Z,1001.07
2022-10-15T11:09:38.328Z,1001.09
2022-10-15T11:10:38.371Z,1001.00
2022-10-15T11:11:38.371Z,1000.96
2022-10-15T11:12:38.398Z,1000.97
2022-10-15T11:13:38.429Z,1000.92
2022-10-15T11:14:38.456Z,1000.90
2022-10-15T11:15:38.484Z,1000.90
2022-10-15T11:16:38.515Z,1000.90
2022-10-15T11:17:38.541Z,1000.88
2022-10-15T11:18:38.567Z,1000.82
2022-10-15T11:20:52.981Z,1000.86
2022-10-15T11:21:38.654Z,1000.81
2022-10-15T11:22:38.682Z,1000.77
2022-10-15T11:23:38.708Z,1000.74
2022-10-15T11:24:48.519Z,1000.74
2022-10-15T11:25:38.762Z,1000.76
2022-10-15T11:26:51.927Z,1000.76
2022-10-15T11:27:38.824Z,1000.78
2022-10-15T11:28:38.887Z,1000.81
2022-10-15T11:29:38.877Z,1000.81
2022-10-15T11:30:38.912Z,1000.82
2022-10-15T11:31:49.083Z,1000.85
2022-10-15T11:33:01.884Z,1000.79
2022-10-15T11:33:38.993Z,1000.82
2022-10-15T11:34:39.018Z,1000.76
2022-10-15T11:35:53.058Z,1000.75
2022-10-15T11:36:39.076Z,1000.78
2022-10-15T11:37:39.105Z,1000.83
2022-10-15T11:38:39.132Z,1000.80
2022-10-15T11:39:39.158Z,1000.83
2022-10-15T11:40:39.188Z,1000.78
2022-10-15T11:41:39.233Z,1000.79
2022-10-15T11:42:39.244Z,1000.73
2022-10-15T11:43:39.273Z,1000.79
2022-10-15T11:44:39.312Z,1000.81
2022-10-15T11:45:39.331Z,1000.81
2022-10-15T11:46:42.834Z,1000.79
2022-10-15T11:47:39.387Z,1000.79
2022-10-15T11:48:39.415Z,1000.78
2022-10-15T11:49:39.444Z,1000.76
2022-10-15T11:50:39.477Z,1000.77
2022-10-15T11:51:39.517Z,1000.70
2022-10-15T11:52:39.531Z,1000.73
2022-10-15T11:53:39.558Z,1000.75
2022-10-15T11:54:39.591Z,1000.73
2022-10-15T11:55:39.617Z,1000.71
2022-10-15T11:56:39.647Z,1000.69
2022-10-15T11:57:39.679Z,1000.69
2022-10-15T11:58:39.707Z,1000.68
2022-10-15T11:59:39.733Z,1000.65
2022-10-15T12:00:39.760Z,1000.58
2022-10-15T12:01:39.791Z,1000.64
2022-10-15T12:02:39.832Z,1000.62
2022-10-15T12:03:39.850Z,1000.56
2022-10-15T12:04:39.880Z,1000.61
2022-10-15T12:05:39.967Z,1000.57
2022-10-15T12:06:39.941Z,1000.49
2022-10-15T12:07:39.970Z,1000.50
2022-10-15T12:08:39.997Z,1000.50
2022-10-15T12:09:40.035Z,1000.45
2022-10-15T12:10:40.056Z,1000.44
2022-10-15T12:11:40.085Z,1000.46
2022-10-15T12:12:40.114Z,1000.44
2022-10-15T12:13:40.148Z,1000.43
2022-10-15T12:14:40.190Z,1000.47
2022-10-15T12:15:40.230Z,1000.43
2022-10-15T12:16:40.240Z,1000.48
2022-10-15T12:17:40.258Z,1000.41
2022-10-15T12:18:40.289Z,1000.41
2022-10-15T12:19:40.320Z,1000.32
2022-10-15T12:20:40.348Z,1000.35
2022-10-15T12:21:40.379Z,1000.35
2022-10-15T12:22:40.412Z,1000.32